sensor_id;sensor_type;location;lat;lon;timestamp;P1;durP1;ratioP1;P2;durP2;ratioP2
54408;SDS011;40315;48.620;9.828;2022-07-12T00:01:53;4.35;;;3.10;;
54408;SDS011;40315;48.620;9.828;2022-07-12T00:04:20;4.32;;;3.55;;
54408;SDS011;40315;48.620;9.828;2022-07-12T00:06:48;3.42;;;3.13;;
54408;SDS011;40315;48.620;9.828;2022-07-12T00:09:15;3.60;;;3.30;;
54408;SDS011;40315;48.620;9.828;2022-07-12T00:11:42;3.45;;;3.15;;
54408;SDS011;40315;48.620;9.828;2022-07-12T00:14:09;4.25;;;2.90;;
54408;SDS011;40315;48.620;9.828;2022-07-12T00:16:36;4.20;;;3.20;;
54408;SDS011;40315;48.620;9.828;2022-07-12T00:19:05;3.65;;;3.30;;
54408;SDS011;40315;48.620;9.828;2022-07-12T00:21:32;3.65;;;3.33;;
54408;SDS011;40315;48.620;9.828;2022-07-12T00:23:59;4.82;;;3.80;;
54408;SDS011;40315;48.620;9.828;2022-07-12T00:26:27;3.97;;;3.25;;
54408;SDS011;40315;48.620;9.828;2022-07-12T00:28:55;3.50;;;3.20;;
54408;SDS011;40315;48.620;9.828;2022-07-12T00:31:23;4.18;;;3.65;;
54408;SDS011;40315;48.620;9.828;2022-07-12T00:33:50;3.90;;;3.15;;
54408;SDS011;40315;48.620;9.828;2022-07-12T00:36:18;3.53;;;3.15;;
54408;SDS011;40315;48.620;9.828;2022-07-12T00:38:46;4.00;;;3.60;;
54408;SDS011;40315;48.620;9.828;2022-07-12T00:41:13;4.15;;;3.33;;
54408;SDS011;40315;48.620;9.828;2022-07-12T00:43:40;3.60;;;3.30;;
54408;SDS011;40315;48.620;9.828;2022-07-12T00:46:07;4.05;;;3.50;;
54408;SDS011;40315;48.620;9.828;2022-07-12T00:48:36;3.75;;;3.22;;
54408;SDS011;40315;48.620;9.828;2022-07-12T00:51:03;3.83;;;3.35;;
54408;SDS011;40315;48.620;9.828;2022-07-12T00:53:32;3.47;;;3.15;;
54408;SDS011;40315;48.620;9.828;2022-07-12T00:56:01;3.78;;;3.10;;
54408;SDS011;40315;48.620;9.828;2022-07-12T00:58:30;3.67;;;3.38;;
54408;SDS011;40315;48.620;9.828;2022-07-12T01:03:38;4.63;;;3.40;;
54408;SDS011;40315;48.620;9.828;2022-07-12T01:06:06;3.97;;;3.58;;
54408;SDS011;40315;48.620;9.828;2022-07-12T01:08:37;3.50;;;3.20;;
54408;SDS011;40315;48.620;9.828;2022-07-12T01:11:05;3.65;;;3.35;;
54408;SDS011;40315;48.620;9.828;2022-07-12T01:13:32;3.72;;;3.38;;
54408;SDS011;40315;48.620;9.828;2022-07-12T01:16:01;4.03;;;3.63;;
54408;SDS011;40315;48.620;9.828;2022-07-12T01:18:28;4.18;;;3.60;;
54408;SDS011;40315;48.620;9.828;2022-07-12T01:20:56;4.32;;;3.58;;
54408;SDS011;40315;48.620;9.828;2022-07-12T01:23:25;3.95;;;3.40;;
54408;SDS011;40315;48.620;9.828;2022-07-12T01:25:52;3.30;;;3.00;;
54408;SDS011;40315;48.620;9.828;2022-07-12T01:28:19;3.65;;;3.35;;
54408;SDS011;40315;48.620;9.828;2022-07-12T01:30:47;4.50;;;3.55;;
54408;SDS011;40315;48.620;9.828;2022-07-12T01:33:14;4.90;;;3.50;;
54408;SDS011;40315;48.620;9.828;2022-07-12T01:35:45;4.35;;;3.95;;
54408;SDS011;40315;48.620;9.828;2022-07-12T01:38:13;3.55;;;3.25;;
54408;SDS011;40315;48.620;9.828;2022-07-12T01:44:22;4.10;;;3.70;;
54408;SDS011;40315;48.620;9.828;2022-07-12T01:46:49;6.32;;;3.95;;
54408;SDS011;40315;48.620;9.828;2022-07-12T01:49:16;4.03;;;3.63;;
54408;SDS011;40315;48.620;9.828;2022-07-12T01:51:43;4.20;;;3.80;;
54408;SDS011;40315;48.620;9.828;2022-07-12T01:54:11;4.90;;;3.53;;
54408;SDS011;40315;48.620;9.828;2022-07-12T01:56:38;5.03;;;3.45;;
54408;SDS011;40315;48.620;9.828;2022-07-12T01:59:08;3.67;;;3.28;;
54408;SDS011;40315;48.620;9.828;2022-07-12T02:01:39;4.15;;;3.75;;
54408;SDS011;40315;48.620;9.828;2022-07-12T02:04:06;4.82;;;3.70;;
54408;SDS011;40315;48.620;9.828;2022-07-12T02:06:33;4.07;;;3.67;;
54408;SDS011;40315;48.620;9.828;2022-07-12T02:09:01;4.40;;;3.60;;
54408;SDS011;40315;48.620;9.828;2022-07-12T02:11:28;4.10;;;3.70;;
54408;SDS011;40315;48.620;9.828;2022-07-12T02:13:55;4.88;;;3.72;;
54408;SDS011;40315;48.620;9.828;2022-07-12T02:16:22;6.10;;;3.40;;
54408;SDS011;40315;48.620;9.828;2022-07-12T02:18:51;4.45;;;3.38;;
54408;SDS011;40315;48.620;9.828;2022-07-12T02:21:18;3.88;;;3.42;;
54408;SDS011;40315;48.620;9.828;2022-07-12T02:23:45;3.90;;;3.50;;
54408;SDS011;40315;48.620;9.828;2022-07-12T02:26:12;3.55;;;3.25;;
54408;SDS011;40315;48.620;9.828;2022-07-12T02:28:40;3.70;;;3.15;;
54408;SDS011;40315;48.620;9.828;2022-07-12T02:31:07;3.58;;;3.00;;
54408;SDS011;40315;48.620;9.828;2022-07-12T02:33:34;4.03;;;3.63;;
54408;SDS011;40315;48.620;9.828;2022-07-12T02:36:03;4.53;;;3.10;;
54408;SDS011;40315;48.620;9.828;2022-07-12T02:38:30;3.90;;;3.50;;
54408;SDS011;40315;48.620;9.828;2022-07-12T02:40:58;4.13;;;3.17;;
54408;SDS011;40315;48.620;9.828;2022-07-12T02:43:25;4.05;;;3.38;;
54408;SDS011;40315;48.620;9.828;2022-07-12T02:46:02;4.20;;;3.28;;
54408;SDS011;40315;48.620;9.828;2022-07-12T02:48:31;3.83;;;3.45;;
54408;SDS011;40315;48.620;9.828;2022-07-12T02:50:58;3.75;;;3.40;;
54408;SDS011;40315;48.620;9.828;2022-07-12T02:53:27;3.40;;;3.10;;
54408;SDS011;40315;48.620;9.828;2022-07-12T02:55:54;4.03;;;2.80;;
54408;SDS011;40315;48.620;9.828;2022-07-12T02:58:21;3.97;;;2.90;;
54408;SDS011;40315;48.620;9.828;2022-07-12T03:00:48;3.15;;;2.85;;
54408;SDS011;40315;48.620;9.828;2022-07-12T03:03:15;3.47;;;2.95;;
54408;SDS011;40315;48.620;9.828;2022-07-12T03:05:43;4.43;;;3.25;;
54408;SDS011;40315;48.620;9.828;2022-07-12T03:08:10;4.03;;;3.40;;
54408;SDS011;40315;48.620;9.828;2022-07-12T03:10:39;3.65;;;3.30;;
54408;SDS011;40315;48.620;9.828;2022-07-12T03:13:06;4.93;;;3.70;;
54408;SDS011;40315;48.620;9.828;2022-07-12T03:15:34;4.10;;;3.70;;
54408;SDS011;40315;48.620;9.828;2022-07-12T03:18:01;3.70;;;3.28;;
54408;SDS011;40315;48.620;9.828;2022-07-12T03:20:29;3.75;;;3.45;;
54408;SDS011;40315;48.620;9.828;2022-07-12T03:22:59;4.35;;;3.45;;
54408;SDS011;40315;48.620;9.828;2022-07-12T03:25:26;3.40;;;3.10;;
54408;SDS011;40315;48.620;9.828;2022-07-12T03:27:54;5.75;;;3.60;;
54408;SDS011;40315;48.620;9.828;2022-07-12T03:30:21;5.28;;;3.50;;
54408;SDS011;40315;48.620;9.828;2022-07-12T03:32:48;4.95;;;3.40;;
54408;SDS011;40315;48.620;9.828;2022-07-12T03:35:15;3.65;;;3.20;;
54408;SDS011;40315;48.620;9.828;2022-07-12T03:37:43;4.30;;;2.80;;
54408;SDS011;40315;48.620;9.828;2022-07-12T03:40:12;3.35;;;2.95;;
54408;SDS011;40315;48.620;9.828;2022-07-12T03:42:40;3.28;;;2.97;;
54408;SDS011;40315;48.620;9.828;2022-07-12T03:45:10;3.90;;;3.03;;
54408;SDS011;40315;48.620;9.828;2022-07-12T03:47:38;4.13;;;2.90;;
54408;SDS011;40315;48.620;9.828;2022-07-12T03:50:05;4.50;;;4.10;;
54408;SDS011;40315;48.620;9.828;2022-07-12T03:52:34;3.67;;;3.38;;
54408;SDS011;40315;48.620;9.828;2022-07-12T03:55:01;4.05;;;3.65;;
54408;SDS011;40315;48.620;9.828;2022-07-12T03:57:28;3.95;;;3.60;;
54408;SDS011;40315;48.620;9.828;2022-07-12T03:59:56;4.18;;;3.72;;
54408;SDS011;40315;48.620;9.828;2022-07-12T04:02:25;4.07;;;3.40;;
54408;SDS011;40315;48.620;9.828;2022-07-12T04:04:54;4.88;;;3.53;;
54408;SDS011;40315;48.620;9.828;2022-07-12T04:07:21;3.58;;;3.28;;
54408;SDS011;40315;48.620;9.828;2022-07-12T04:09:48;4.50;;;2.95;;
54408;SDS011;40315;48.620;9.828;2022-07-12T04:12:17;3.50;;;3.20;;
54408;SDS011;40315;48.620;9.828;2022-07-12T04:14:45;3.88;;;3.35;;
54408;SDS011;40315;48.620;9.828;2022-07-12T04:17:12;4.13;;;3.47;;
54408;SDS011;40315;48.620;9.828;2022-07-12T04:19:42;4.10;;;3.65;;
54408;SDS011;40315;48.620;9.828;2022-07-12T04:22:09;4.18;;;3.78;;
54408;SDS011;40315;48.620;9.828;2022-07-12T04:24:36;4.13;;;3.53;;
54408;SDS011;40315;48.620;9.828;2022-07-12T04:27:04;3.60;;;3.30;;
54408;SDS011;40315;48.620;9.828;2022-07-12T04:29:31;3.83;;;3.42;;
54408;SDS011;40315;48.620;9.828;2022-07-12T04:31:58;3.90;;;3.50;;
54408;SDS011;40315;48.620;9.828;2022-07-12T04:34:27;3.72;;;3.00;;
54408;SDS011;40315;48.620;9.828;2022-07-12T04:36:55;4.18;;;2.90;;
54408;SDS011;40315;48.620;9.828;2022-07-12T04:39:22;4.68;;;3.35;;
54408;SDS011;40315;48.620;9.828;2022-07-12T04:41:52;3.05;;;2.75;;
54408;SDS011;40315;48.620;9.828;2022-07-12T04:44:19;3.53;;;3.00;;
54408;SDS011;40315;48.620;9.828;2022-07-12T04:46:46;3.17;;;2.88;;
54408;SDS011;40315;48.620;9.828;2022-07-12T04:49:13;4.63;;;3.40;;
54408;SDS011;40315;48.620;9.828;2022-07-12T04:51:40;3.67;;;3.35;;
54408;SDS011;40315;48.620;9.828;2022-07-12T04:54:08;4.10;;;3.40;;
54408;SDS011;40315;48.620;9.828;2022-07-12T04:56:35;3.80;;;3.50;;
54408;SDS011;40315;48.620;9.828;2022-07-12T04:59:05;4.38;;;3.00;;
54408;SDS011;40315;48.620;9.828;2022-07-12T05:01:32;3.92;;;3.30;;
54408;SDS011;40315;48.620;9.828;2022-07-12T05:03:59;8.35;;;6.30;;
54408;SDS011;40315;48.620;9.828;2022-07-12T05:06:26;5.10;;;3.67;;
54408;SDS011;40315;48.620;9.828;2022-07-12T05:08:53;4.07;;;3.10;;
54408;SDS011;40315;48.620;9.828;2022-07-12T05:11:22;3.88;;;3.00;;
54408;SDS011;40315;48.620;9.828;2022-07-12T05:13:49;3.25;;;2.95;;
54408;SDS011;40315;48.620;9.828;2022-07-12T05:16:16;4.03;;;2.75;;
54408;SDS011;40315;48.620;9.828;2022-07-12T05:18:43;3.92;;;2.67;;
54408;SDS011;40315;48.620;9.828;2022-07-12T05:21:10;2.80;;;2.47;;
54408;SDS011;40315;48.620;9.828;2022-07-12T05:23:37;4.10;;;2.10;;
54408;SDS011;40315;48.620;9.828;2022-07-12T05:26:04;2.95;;;2.20;;
54408;SDS011;40315;48.620;9.828;2022-07-12T05:28:33;3.58;;;2.30;;
54408;SDS011;40315;48.620;9.828;2022-07-12T05:31:00;1.92;;;1.50;;
54408;SDS011;40315;48.620;9.828;2022-07-12T05:33:27;1.50;;;1.40;;
54408;SDS011;40315;48.620;9.828;2022-07-12T05:35:54;1.65;;;1.55;;
54408;SDS011;40315;48.620;9.828;2022-07-12T05:38:21;2.40;;;1.40;;
54408;SDS011;40315;48.620;9.828;2022-07-12T05:40:48;1.90;;;1.80;;
54408;SDS011;40315;48.620;9.828;2022-07-12T05:43:15;2.33;;;2.08;;
54408;SDS011;40315;48.620;9.828;2022-07-12T05:45:43;2.78;;;2.25;;
54408;SDS011;40315;48.620;9.828;2022-07-12T05:48:13;3.40;;;2.17;;
54408;SDS011;40315;48.620;9.828;2022-07-12T05:50:40;3.03;;;2.20;;
54408;SDS011;40315;48.620;9.828;2022-07-12T05:53:07;2.38;;;2.17;;
54408;SDS011;40315;48.620;9.828;2022-07-12T05:55:48;2.50;;;2.30;;
54408;SDS011;40315;48.620;9.828;2022-07-12T05:58:16;2.10;;;2.00;;
54408;SDS011;40315;48.620;9.828;2022-07-12T06:00:45;2.40;;;2.20;;
54408;SDS011;40315;48.620;9.828;2022-07-12T06:03:13;2.20;;;2.00;;
54408;SDS011;40315;48.620;9.828;2022-07-12T06:05:43;2.17;;;1.77;;
54408;SDS011;40315;48.620;9.828;2022-07-12T06:08:10;1.83;;;1.60;;
54408;SDS011;40315;48.620;9.828;2022-07-12T06:10:37;1.77;;;1.40;;
54408;SDS011;40315;48.620;9.828;2022-07-12T06:13:04;2.28;;;1.60;;
54408;SDS011;40315;48.620;9.828;2022-07-12T06:15:31;1.70;;;1.58;;
54408;SDS011;40315;48.620;9.828;2022-07-12T06:18:03;1.70;;;1.60;;
54408;SDS011;40315;48.620;9.828;2022-07-12T06:20:33;1.75;;;1.40;;
54408;SDS011;40315;48.620;9.828;2022-07-12T06:23:00;1.42;;;1.20;;
54408;SDS011;40315;48.620;9.828;2022-07-12T06:25:30;1.75;;;1.25;;
54408;SDS011;40315;48.620;9.828;2022-07-12T06:27:59;1.15;;;1.05;;
54408;SDS011;40315;48.620;9.828;2022-07-12T06:30:26;1.40;;;1.20;;
54408;SDS011;40315;48.620;9.828;2022-07-12T06:32:54;2.03;;;1.30;;
54408;SDS011;40315;48.620;9.828;2022-07-12T06:35:22;0.88;;;0.88;;
54408;SDS011;40315;48.620;9.828;2022-07-12T06:37:49;1.20;;;1.10;;
54408;SDS011;40315;48.620;9.828;2022-07-12T06:40:16;1.50;;;1.10;;
54408;SDS011;40315;48.620;9.828;2022-07-12T06:42:44;1.40;;;1.15;;
54408;SDS011;40315;48.620;9.828;2022-07-12T06:45:11;1.70;;;0.90;;
54408;SDS011;40315;48.620;9.828;2022-07-12T06:47:38;1.08;;;0.90;;
54408;SDS011;40315;48.620;9.828;2022-07-12T06:50:05;1.55;;;0.90;;
54408;SDS011;40315;48.620;9.828;2022-07-12T06:52:34;0.73;;;0.70;;
54408;SDS011;40315;48.620;9.828;2022-07-12T06:55:02;1.38;;;0.80;;
54408;SDS011;40315;48.620;9.828;2022-07-12T06:57:29;0.55;;;0.55;;
54408;SDS011;40315;48.620;9.828;2022-07-12T06:59:56;1.88;;;0.90;;
54408;SDS011;40315;48.620;9.828;2022-07-12T07:02:23;0.98;;;0.50;;
54408;SDS011;40315;48.620;9.828;2022-07-12T07:04:51;0.60;;;0.60;;
54408;SDS011;40315;48.620;9.828;2022-07-12T07:07:18;0.63;;;0.63;;
54408;SDS011;40315;48.620;9.828;2022-07-12T07:09:46;0.75;;;0.57;;
54408;SDS011;40315;48.620;9.828;2022-07-12T07:12:13;0.50;;;0.50;;
54408;SDS011;40315;48.620;9.828;2022-07-12T07:14:40;0.70;;;0.70;;
54408;SDS011;40315;48.620;9.828;2022-07-12T07:17:07;0.68;;;0.68;;
54408;SDS011;40315;48.620;9.828;2022-07-12T07:19:36;2.10;;;0.85;;
54408;SDS011;40315;48.620;9.828;2022-07-12T07:22:05;0.90;;;0.75;;
54408;SDS011;40315;48.620;9.828;2022-07-12T07:24:32;1.50;;;0.80;;
54408;SDS011;40315;48.620;9.828;2022-07-12T07:27:03;1.15;;;0.68;;
54408;SDS011;40315;48.620;9.828;2022-07-12T07:29:31;0.60;;;0.60;;
54408;SDS011;40315;48.620;9.828;2022-07-12T07:32:15;0.70;;;0.70;;
54408;SDS011;40315;48.620;9.828;2022-07-12T07:34:42;1.88;;;0.70;;
54408;SDS011;40315;48.620;9.828;2022-07-12T07:37:09;2.40;;;0.75;;
54408;SDS011;40315;48.620;9.828;2022-07-12T07:39:38;0.73;;;0.52;;
54408;SDS011;40315;48.620;9.828;2022-07-12T07:42:07;0.40;;;0.40;;
54408;SDS011;40315;48.620;9.828;2022-07-12T07:44:34;0.50;;;0.50;;
54408;SDS011;40315;48.620;9.828;2022-07-12T07:47:01;0.40;;;0.40;;
54408;SDS011;40315;48.620;9.828;2022-07-12T07:49:28;0.40;;;0.40;;
54408;SDS011;40315;48.620;9.828;2022-07-12T07:51:55;0.40;;;0.40;;
54408;SDS011;40315;48.620;9.828;2022-07-12T07:54:22;0.40;;;0.40;;
54408;SDS011;40315;48.620;9.828;2022-07-12T07:56:49;0.40;;;0.30;;
54408;SDS011;40315;48.620;9.828;2022-07-12T07:59:18;0.90;;;0.50;;
54408;SDS011;40315;48.620;9.828;2022-07-12T08:01:45;0.35;;;0.35;;
54408;SDS011;40315;48.620;9.828;2022-07-12T08:04:13;0.88;;;0.40;;
54408;SDS011;40315;48.620;9.828;2022-07-12T08:06:42;0.40;;;0.40;;
54408;SDS011;40315;48.620;9.828;2022-07-12T08:09:09;1.83;;;0.50;;
54408;SDS011;40315;48.620;9.828;2022-07-12T08:11:36;0.60;;;0.40;;
54408;SDS011;40315;48.620;9.828;2022-07-12T08:14:07;0.77;;;0.47;;
54408;SDS011;40315;48.620;9.828;2022-07-12T08:16:36;1.42;;;0.40;;
54408;SDS011;40315;48.620;9.828;2022-07-12T08:19:06;0.32;;;0.32;;
54408;SDS011;40315;48.620;9.828;2022-07-12T08:21:33;0.30;;;0.28;;
54408;SDS011;40315;48.620;9.828;2022-07-12T08:24:00;0.40;;;0.40;;
54408;SDS011;40315;48.620;9.828;2022-07-12T08:26:27;0.30;;;0.30;;
54408;SDS011;40315;48.620;9.828;2022-07-12T08:28:54;1.70;;;0.40;;
54408;SDS011;40315;48.620;9.828;2022-07-12T08:31:23;0.50;;;0.50;;
54408;SDS011;40315;48.620;9.828;2022-07-12T08:33:52;0.40;;;0.40;;
54408;SDS011;40315;48.620;9.828;2022-07-12T08:36:19;0.68;;;0.50;;
54408;SDS011;40315;48.620;9.828;2022-07-12T08:38:46;0.65;;;0.60;;
54408;SDS011;40315;48.620;9.828;2022-07-12T08:41:13;0.73;;;0.60;;
54408;SDS011;40315;48.620;9.828;2022-07-12T08:43:41;0.60;;;0.60;;
54408;SDS011;40315;48.620;9.828;2022-07-12T08:46:09;0.70;;;0.70;;
54408;SDS011;40315;48.620;9.828;2022-07-12T08:48:37;0.73;;;0.60;;
54408;SDS011;40315;48.620;9.828;2022-07-12T08:51:06;0.77;;;0.70;;
54408;SDS011;40315;48.620;9.828;2022-07-12T08:53:35;1.08;;;0.80;;
54408;SDS011;40315;48.620;9.828;2022-07-12T08:56:03;2.28;;;0.80;;
54408;SDS011;40315;48.620;9.828;2022-07-12T08:58:31;1.25;;;0.70;;
54408;SDS011;40315;48.620;9.828;2022-07-12T09:00:59;0.50;;;0.50;;
54408;SDS011;40315;48.620;9.828;2022-07-12T09:03:26;1.60;;;0.75;;
54408;SDS011;40315;48.620;9.828;2022-07-12T09:05:57;1.05;;;0.85;;
54408;SDS011;40315;48.620;9.828;2022-07-12T09:08:27;1.27;;;0.50;;
54408;SDS011;40315;48.620;9.828;2022-07-12T09:10:56;0.65;;;0.65;;
54408;SDS011;40315;48.620;9.828;2022-07-12T09:16:12;0.70;;;0.70;;
54408;SDS011;40315;48.620;9.828;2022-07-12T09:18:39;0.70;;;0.70;;
54408;SDS011;40315;48.620;9.828;2022-07-12T09:21:06;0.73;;;0.70;;
54408;SDS011;40315;48.620;9.828;2022-07-12T09:23:35;0.82;;;0.75;;
54408;SDS011;40315;48.620;9.828;2022-07-12T09:26:04;0.85;;;0.80;;
54408;SDS011;40315;48.620;9.828;2022-07-12T09:28:34;0.70;;;0.70;;
54408;SDS011;40315;48.620;9.828;2022-07-12T09:31:02;1.38;;;0.80;;
54408;SDS011;40315;48.620;9.828;2022-07-12T09:33:29;0.98;;;0.88;;
54408;SDS011;40315;48.620;9.828;2022-07-12T09:36:14;1.38;;;0.90;;
54408;SDS011;40315;48.620;9.828;2022-07-12T09:38:50;1.95;;;0.73;;
54408;SDS011;40315;48.620;9.828;2022-07-12T09:41:19;0.77;;;0.70;;
54408;SDS011;40315;48.620;9.828;2022-07-12T09:43:48;0.52;;;0.52;;
54408;SDS011;40315;48.620;9.828;2022-07-12T09:46:16;1.85;;;0.70;;
54408;SDS011;40315;48.620;9.828;2022-07-12T09:48:44;1.48;;;0.60;;
54408;SDS011;40315;48.620;9.828;2022-07-12T09:51:14;1.38;;;0.63;;
54408;SDS011;40315;48.620;9.828;2022-07-12T09:53:43;0.50;;;0.50;;
54408;SDS011;40315;48.620;9.828;2022-07-12T09:56:13;0.40;;;0.40;;
54408;SDS011;40315;48.620;9.828;2022-07-12T09:58:47;0.50;;;0.50;;
54408;SDS011;40315;48.620;9.828;2022-07-12T10:01:17;0.40;;;0.40;;
54408;SDS011;40315;48.620;9.828;2022-07-12T10:03:47;0.50;;;0.50;;
54408;SDS011;40315;48.620;9.828;2022-07-12T10:06:16;0.82;;;0.50;;
54408;SDS011;40315;48.620;9.828;2022-07-12T10:08:52;0.47;;;0.47;;
54408;SDS011;40315;48.620;9.828;2022-07-12T10:11:22;0.40;;;0.40;;
54408;SDS011;40315;48.620;9.828;2022-07-12T10:13:50;0.40;;;0.40;;
54408;SDS011;40315;48.620;9.828;2022-07-12T10:16:24;0.47;;;0.47;;
54408;SDS011;40315;48.620;9.828;2022-07-12T10:21:50;0.40;;;0.40;;
54408;SDS011;40315;48.620;9.828;2022-07-12T10:27:29;0.40;;;0.40;;
54408;SDS011;40315;48.620;9.828;2022-07-12T10:30:14;0.40;;;0.40;;
54408;SDS011;40315;48.620;9.828;2022-07-12T10:32:43;0.30;;;0.30;;
54408;SDS011;40315;48.620;9.828;2022-07-12T10:35:11;0.30;;;0.30;;
54408;SDS011;40315;48.620;9.828;2022-07-12T10:37:39;0.30;;;0.30;;
54408;SDS011;40315;48.620;9.828;2022-07-12T10:40:13;0.35;;;0.35;;
54408;SDS011;40315;48.620;9.828;2022-07-12T10:43:11;0.30;;;0.30;;
54408;SDS011;40315;48.620;9.828;2022-07-12T10:45:40;0.38;;;0.38;;
54408;SDS011;40315;48.620;9.828;2022-07-12T10:48:08;0.30;;;0.30;;
54408;SDS011;40315;48.620;9.828;2022-07-12T10:50:50;0.93;;;0.40;;
54408;SDS011;40315;48.620;9.828;2022-07-12T10:53:25;0.40;;;0.40;;
54408;SDS011;40315;48.620;9.828;2022-07-12T10:56:06;0.40;;;0.40;;
54408;SDS011;40315;48.620;9.828;2022-07-12T10:58:41;0.52;;;0.40;;
54408;SDS011;40315;48.620;9.828;2022-07-12T11:01:11;0.40;;;0.40;;
54408;SDS011;40315;48.620;9.828;2022-07-12T11:03:39;0.30;;;0.30;;
54408;SDS011;40315;48.620;9.828;2022-07-12T11:06:08;0.47;;;0.40;;
54408;SDS011;40315;48.620;9.828;2022-07-12T11:08:49;1.65;;;0.43;;
54408;SDS011;40315;48.620;9.828;2022-07-12T11:11:17;0.40;;;0.35;;
54408;SDS011;40315;48.620;9.828;2022-07-12T11:13:46;0.38;;;0.38;;
54408;SDS011;40315;48.620;9.828;2022-07-12T11:16:14;0.30;;;0.30;;
54408;SDS011;40315;48.620;9.828;2022-07-12T11:18:41;0.45;;;0.45;;
54408;SDS011;40315;48.620;9.828;2022-07-12T11:21:09;0.47;;;0.40;;
54408;SDS011;40315;48.620;9.828;2022-07-12T11:23:36;1.00;;;0.50;;
54408;SDS011;40315;48.620;9.828;2022-07-12T11:26:06;0.50;;;0.50;;
54408;SDS011;40315;48.620;9.828;2022-07-12T11:28:34;0.50;;;0.50;;
54408;SDS011;40315;48.620;9.828;2022-07-12T11:31:03;0.55;;;0.50;;
54408;SDS011;40315;48.620;9.828;2022-07-12T11:33:31;0.40;;;0.40;;
54408;SDS011;40315;48.620;9.828;2022-07-12T11:36:00;0.45;;;0.45;;
54408;SDS011;40315;48.620;9.828;2022-07-12T11:38:32;0.57;;;0.57;;
54408;SDS011;40315;48.620;9.828;2022-07-12T11:41:00;0.40;;;0.40;;
54408;SDS011;40315;48.620;9.828;2022-07-12T11:43:29;0.40;;;0.40;;
54408;SDS011;40315;48.620;9.828;2022-07-12T11:45:57;0.50;;;0.50;;
54408;SDS011;40315;48.620;9.828;2022-07-12T11:48:26;0.60;;;0.47;;
54408;SDS011;40315;48.620;9.828;2022-07-12T11:50:54;0.45;;;0.40;;
54408;SDS011;40315;48.620;9.828;2022-07-12T11:53:23;0.40;;;0.40;;
54408;SDS011;40315;48.620;9.828;2022-07-12T11:55:51;1.20;;;0.40;;
54408;SDS011;40315;48.620;9.828;2022-07-12T11:58:23;0.50;;;0.50;;
54408;SDS011;40315;48.620;9.828;2022-07-12T12:00:51;0.70;;;0.50;;
54408;SDS011;40315;48.620;9.828;2022-07-12T12:03:19;0.40;;;0.40;;
54408;SDS011;40315;48.620;9.828;2022-07-12T12:05:49;1.90;;;0.40;;
54408;SDS011;40315;48.620;9.828;2022-07-12T12:08:18;0.63;;;0.32;;
54408;SDS011;40315;48.620;9.828;2022-07-12T12:10:52;0.40;;;0.40;;
54408;SDS011;40315;48.620;9.828;2022-07-12T12:13:21;0.77;;;0.40;;
54408;SDS011;40315;48.620;9.828;2022-07-12T12:15:49;0.40;;;0.40;;
54408;SDS011;40315;48.620;9.828;2022-07-12T12:18:27;0.55;;;0.50;;
54408;SDS011;40315;48.620;9.828;2022-07-12T12:21:00;0.40;;;0.40;;
54408;SDS011;40315;48.620;9.828;2022-07-12T12:23:29;0.40;;;0.40;;
54408;SDS011;40315;48.620;9.828;2022-07-12T12:26:12;0.30;;;0.30;;
54408;SDS011;40315;48.620;9.828;2022-07-12T12:28:40;0.70;;;0.40;;
54408;SDS011;40315;48.620;9.828;2022-07-12T12:31:08;0.52;;;0.40;;
54408;SDS011;40315;48.620;9.828;2022-07-12T12:33:36;0.40;;;0.40;;
54408;SDS011;40315;48.620;9.828;2022-07-12T12:36:15;0.40;;;0.40;;
54408;SDS011;40315;48.620;9.828;2022-07-12T12:38:43;0.30;;;0.30;;
54408;SDS011;40315;48.620;9.828;2022-07-12T12:41:17;0.30;;;0.30;;
54408;SDS011;40315;48.620;9.828;2022-07-12T12:43:47;0.77;;;0.20;;
54408;SDS011;40315;48.620;9.828;2022-07-12T12:46:22;0.85;;;0.40;;
54408;SDS011;40315;48.620;9.828;2022-07-12T12:49:09;0.32;;;0.30;;
54408;SDS011;40315;48.620;9.828;2022-07-12T12:54:30;0.40;;;0.40;;
54408;SDS011;40315;48.620;9.828;2022-07-12T12:56:58;0.38;;;0.30;;
54408;SDS011;40315;48.620;9.828;2022-07-12T12:59:25;0.43;;;0.40;;
54408;SDS011;40315;48.620;9.828;2022-07-12T13:01:52;0.40;;;0.30;;
54408;SDS011;40315;48.620;9.828;2022-07-12T13:04:19;0.30;;;0.30;;
54408;SDS011;40315;48.620;9.828;2022-07-12T13:06:49;0.45;;;0.45;;
54408;SDS011;40315;48.620;9.828;2022-07-12T13:09:18;0.45;;;0.22;;
54408;SDS011;40315;48.620;9.828;2022-07-12T13:11:47;0.30;;;0.30;;
54408;SDS011;40315;48.620;9.828;2022-07-12T13:14:14;0.40;;;0.40;;
54408;SDS011;40315;48.620;9.828;2022-07-12T13:16:41;0.30;;;0.30;;
54408;SDS011;40315;48.620;9.828;2022-07-12T13:19:08;0.35;;;0.35;;
54408;SDS011;40315;48.620;9.828;2022-07-12T13:21:35;0.40;;;0.35;;
54408;SDS011;40315;48.620;9.828;2022-07-12T13:24:03;1.10;;;0.30;;
54408;SDS011;40315;48.620;9.828;2022-07-12T13:26:31;0.60;;;0.38;;
54408;SDS011;40315;48.620;9.828;2022-07-12T13:28:59;0.30;;;0.30;;
54408;SDS011;40315;48.620;9.828;2022-07-12T13:31:26;0.52;;;0.50;;
54408;SDS011;40315;48.620;9.828;2022-07-12T13:33:55;0.30;;;0.30;;
54408;SDS011;40315;48.620;9.828;2022-07-12T13:36:22;1.15;;;0.40;;
54408;SDS011;40315;48.620;9.828;2022-07-12T13:38:49;0.40;;;0.30;;
54408;SDS011;40315;48.620;9.828;2022-07-12T13:41:17;0.38;;;0.38;;
54408;SDS011;40315;48.620;9.828;2022-07-12T13:43:45;0.80;;;0.40;;
54408;SDS011;40315;48.620;9.828;2022-07-12T13:46:20;0.30;;;0.30;;
54408;SDS011;40315;48.620;9.828;2022-07-12T13:48:48;0.28;;;0.28;;
54408;SDS011;40315;48.620;9.828;2022-07-12T13:51:16;1.38;;;0.30;;
54408;SDS011;40315;48.620;9.828;2022-07-12T13:53:43;0.20;;;0.20;;
54408;SDS011;40315;48.620;9.828;2022-07-12T13:56:10;0.55;;;0.45;;
54408;SDS011;40315;48.620;9.828;2022-07-12T13:58:37;0.40;;;0.40;;
54408;SDS011;40315;48.620;9.828;2022-07-12T14:01:05;0.75;;;0.50;;
54408;SDS011;40315;48.620;9.828;2022-07-12T14:03:32;0.40;;;0.40;;
54408;SDS011;40315;48.620;9.828;2022-07-12T14:05:59;0.70;;;0.70;;
54408;SDS011;40315;48.620;9.828;2022-07-12T14:08:29;0.57;;;0.40;;
54408;SDS011;40315;48.620;9.828;2022-07-12T14:10:56;0.30;;;0.30;;
54408;SDS011;40315;48.620;9.828;2022-07-12T14:13:23;1.40;;;0.38;;
54408;SDS011;40315;48.620;9.828;2022-07-12T14:15:50;0.50;;;0.30;;
54408;SDS011;40315;48.620;9.828;2022-07-12T14:18:18;0.55;;;0.40;;
54408;SDS011;40315;48.620;9.828;2022-07-12T14:20:46;0.30;;;0.30;;
54408;SDS011;40315;48.620;9.828;2022-07-12T14:23:13;0.52;;;0.50;;
54408;SDS011;40315;48.620;9.828;2022-07-12T14:25:40;0.50;;;0.50;;
54408;SDS011;40315;48.620;9.828;2022-07-12T14:28:09;0.40;;;0.40;;
54408;SDS011;40315;48.620;9.828;2022-07-12T14:30:36;0.30;;;0.30;;
54408;SDS011;40315;48.620;9.828;2022-07-12T14:33:10;2.13;;;0.40;;
54408;SDS011;40315;48.620;9.828;2022-07-12T14:35:40;0.55;;;0.55;;
54408;SDS011;40315;48.620;9.828;2022-07-12T14:38:07;0.85;;;0.60;;
54408;SDS011;40315;48.620;9.828;2022-07-12T14:40:35;0.55;;;0.40;;
54408;SDS011;40315;48.620;9.828;2022-07-12T14:43:02;1.75;;;0.50;;
54408;SDS011;40315;48.620;9.828;2022-07-12T14:45:29;0.30;;;0.30;;
54408;SDS011;40315;48.620;9.828;2022-07-12T14:47:56;1.42;;;0.40;;
54408;SDS011;40315;48.620;9.828;2022-07-12T14:50:24;0.77;;;0.50;;
54408;SDS011;40315;48.620;9.828;2022-07-12T14:52:52;0.40;;;0.40;;
54408;SDS011;40315;48.620;9.828;2022-07-12T14:55:20;0.55;;;0.30;;
54408;SDS011;40315;48.620;9.828;2022-07-12T14:57:49;0.35;;;0.35;;
54408;SDS011;40315;48.620;9.828;2022-07-12T15:00:18;0.50;;;0.45;;
54408;SDS011;40315;48.620;9.828;2022-07-12T15:02:46;0.32;;;0.32;;
54408;SDS011;40315;48.620;9.828;2022-07-12T15:05:13;1.45;;;0.50;;
54408;SDS011;40315;48.620;9.828;2022-07-12T15:07:40;0.98;;;0.50;;
54408;SDS011;40315;48.620;9.828;2022-07-12T15:10:09;2.13;;;0.57;;
54408;SDS011;40315;48.620;9.828;2022-07-12T15:12:36;1.50;;;0.50;;
54408;SDS011;40315;48.620;9.828;2022-07-12T15:15:03;0.85;;;0.45;;